createdAt,value
2023-05-14T00:00:29.865Z,93.35
2023-05-14T00:01:29.779Z,93.25
2023-05-14T00:02:30.068Z,93.25
2023-05-14T00:03:30.019Z,93.25
2023-05-14T00:04:29.764Z,93.15
2023-05-14T00:05:29.715Z,93.15
2023-05-14T00:06:29.715Z,93.15
2023-05-14T00:07:29.739Z,93.05
2023-05-14T00:08:29.707Z,93.15
2023-05-14T00:09:29.701Z,93.15
2023-05-14T00:10:29.717Z,93.25
2023-05-14T00:11:29.651Z,93.30
2023-05-14T00:12:29.651Z,93.40
2023-05-14T00:13:29.643Z,93.50
2023-05-14T00:14:29.582Z,93.60
2023-05-14T00:15:30.039Z,93.81
2023-05-14T00:16:29.668Z,93.81
2023-05-14T00:17:29.585Z,93.81
2023-05-14T00:18:29.592Z,93.81
2023-05-14T00:19:29.553Z,93.81
2023-05-14T00:20:29.546Z,93.81
2023-05-14T00:21:29.543Z,93.81
2023-05-14T00:22:29.542Z,93.81
2023-05-14T00:23:29.890Z,93.81
2023-05-14T00:24:29.493Z,93.85
2023-05-14T00:25:29.465Z,93.96
2023-05-14T00:26:30.062Z,93.96
2023-05-14T00:27:29.506Z,93.96
2023-05-14T00:28:29.490Z,93.96
2023-05-14T00:29:29.429Z,93.85
2023-05-14T00:30:29.421Z,93.85
2023-05-14T00:31:29.493Z,93.75
2023-05-14T00:32:29.424Z,93.75
2023-05-14T00:33:29.378Z,93.65
2023-05-14T00:34:29.427Z,93.65
2023-05-14T00:35:29.351Z,93.65
2023-05-14T00:36:29.372Z,93.65
2023-05-14T00:37:29.513Z,93.65
2023-05-14T00:38:29.335Z,93.65
2023-05-14T00:39:29.313Z,93.65
2023-05-14T00:40:29.512Z,93.75
2023-05-14T00:41:29.327Z,93.79
2023-05-14T00:42:29.373Z,93.79
2023-05-14T00:43:29.270Z,93.79
2023-05-14T00:44:29.461Z,93.90
2023-05-14T00:45:29.263Z,94.00
2023-05-14T00:46:29.305Z,94.10
2023-05-14T00:47:29.269Z,94.21
2023-05-14T00:48:29.398Z,94.31
2023-05-14T00:49:29.208Z,94.21
2023-05-14T00:50:29.205Z,94.21
2023-05-14T00:51:29.822Z,94.31
2023-05-14T00:52:29.227Z,94.31
2023-05-14T00:53:29.218Z,94.31
2023-05-14T00:54:29.332Z,94.31
2023-05-14T00:55:29.133Z,94.31
2023-05-14T00:56:29.171Z,94.31
2023-05-14T00:57:29.352Z,94.31
2023-05-14T00:58:29.470Z,94.31
2023-05-14T00:59:29.077Z,94.31
2023-05-14T01:00:29.169Z,94.31
2023-05-14T01:01:29.132Z,94.35
2023-05-14T01:02:29.148Z,94.31
2023-05-14T01:03:29.164Z,94.35
2023-05-14T01:04:29.099Z,94.25
2023-05-14T01:05:29.019Z,94.35
2023-05-14T01:06:29.028Z,94.35
2023-05-14T01:07:29.011Z,94.46
2023-05-14T01:08:28.995Z,94.46
2023-05-14T01:09:28.957Z,94.46
2023-05-14T01:10:29.062Z,94.46
2023-05-14T01:11:28.929Z,94.46
2023-05-14T01:12:28.962Z,94.56
2023-05-14T01:13:28.904Z,94.46
2023-05-14T01:14:28.933Z,94.46
2023-05-14T01:15:28.919Z,94.56
2023-05-14T01:16:29.070Z,94.56
2023-05-14T01:17:28.950Z,94.67
2023-05-14T01:18:28.908Z,94.56
2023-05-14T01:19:28.982Z,94.56
2023-05-14T01:20:28.883Z,94.56
2023-05-14T01:21:28.832Z,94.56
2023-05-14T01:22:28.834Z,94.56
2023-05-14T01:23:29.145Z,94.46
2023-05-14T01:24:29.025Z,94.56
2023-05-14T01:25:29.023Z,94.50
2023-05-14T01:26:29.342Z,94.50
2023-05-14T01:27:28.760Z,94.50
2023-05-14T01:28:28.771Z,94.40
2023-05-14T01:29:28.730Z,94.40
2023-05-14T01:30:28.756Z,94.50
2023-05-14T01:31:28.777Z,94.50
2023-05-14T01:32:28.810Z,94.50
2023-05-14T01:33:28.703Z,94.50
2023-05-14T01:34:28.702Z,94.50
2023-05-14T01:35:28.653Z,94.60
2023-05-14T01:36:28.653Z,94.60
2023-05-14T01:37:29.121Z,94.60
2023-05-14T01:38:28.681Z,94.71
2023-05-14T01:39:28.643Z,94.71
2023-05-14T01:40:28.611Z,94.81
2023-05-14T01:41:28.577Z,94.81
2023-05-14T01:42:28.622Z,94.81
2023-05-14T01:43:29.115Z,94.71
2023-05-14T01:44:29.085Z,94.81
2023-05-14T01:45:28.560Z,94.71
2023-05-14T01:46:28.617Z,94.81
2023-05-14T01:47:28.568Z,94.71
2023-05-14T01:48:28.525Z,94.71
2023-05-14T01:49:28.493Z,94.60
2023-05-14T01:50:28.514Z,94.71
2023-05-14T01:51:28.472Z,94.71
2023-05-14T01:52:28.484Z,94.71
2023-05-14T01:53:28.438Z,94.81
2023-05-14T01:54:28.459Z,94.81
2023-05-14T01:55:28.403Z,94.92
2023-05-14T01:56:28.475Z,95.02
2023-05-14T01:57:28.407Z,95.02
2023-05-14T01:58:28.398Z,95.12
2023-05-14T01:59:28.459Z,95.22
2023-05-14T02:00:28.393Z,95.22
2023-05-14T02:01:28.388Z,95.22
2023-05-14T02:02:28.407Z,95.12
2023-05-14T02:03:28.360Z,95.12
2023-05-14T02:04:28.416Z,95.12
2023-05-14T02:05:28.478Z,95.02
2023-05-14T02:06:28.305Z,94.92
2023-05-14T02:07:28.297Z,94.92
2023-05-14T02:08:28.319Z,94.92
2023-05-14T02:09:28.619Z,94.81
2023-05-14T02:10:28.290Z,94.71
2023-05-14T02:11:28.224Z,94.60
2023-05-14T02:12:28.277Z,94.50
2023-05-14T02:13:28.215Z,94.40
2023-05-14T02:14:28.221Z,94.40
2023-05-14T02:15:28.241Z,94.40
2023-05-14T02:16:28.252Z,94.40
2023-05-14T02:17:28.223Z,94.40
2023-05-14T02:18:28.410Z,94.40
2023-05-14T02:19:28.143Z,94.40
2023-05-14T02:20:28.240Z,94.40
2023-05-14T02:21:28.147Z,94.44
2023-05-14T02:22:28.135Z,94.44
2023-05-14T02:23:40.476Z,94.44
2023-05-14T02:24:29.142Z,94.54
2023-05-14T02:25:28.204Z,94.54
2023-05-14T02:26:28.239Z,94.65
2023-05-14T02:27:28.047Z,94.75
2023-05-14T02:28:28.057Z,94.85
2023-05-14T02:29:28.067Z,94.96
2023-05-14T02:30:28.030Z,94.96
2023-05-14T02:31:28.026Z,94.96
2023-05-14T02:32:28.206Z,94.85
2023-05-14T02:33:28.026Z,94.90
2023-05-14T02:34:28.176Z,94.90
2023-05-14T02:35:28.287Z,94.90
2023-05-14T02:36:27.997Z,94.90
2023-05-14T02:37:27.968Z,94.90
2023-05-14T02:38:27.979Z,94.90
2023-05-14T02:39:27.935Z,95.00
2023-05-14T02:40:27.921Z,94.90
2023-05-14T02:41:27.905Z,94.90
2023-05-14T02:42:27.929Z,95.00
2023-05-14T02:43:27.872Z,95.00
2023-05-14T02:44:28.035Z,95.10
2023-05-14T02:45:28.277Z,95.10
2023-05-14T02:46:28.126Z,95.10
2023-05-14T02:47:27.873Z,95.10
2023-05-14T02:48:27.820Z,95.10
2023-05-14T02:49:27.828Z,95.00
2023-05-14T02:50:27.803Z,95.00
2023-05-14T02:51:27.770Z,95.00
2023-05-14T02:52:27.841Z,95.00
2023-05-14T02:53:27.765Z,95.00
2023-05-14T02:54:27.784Z,95.00
2023-05-14T02:55:27.764Z,95.00
2023-05-14T02:56:27.742Z,95.00
2023-05-14T02:57:27.706Z,95.00
2023-05-14T02:58:28.523Z,95.10
2023-05-14T02:59:27.714Z,95.10
2023-05-14T03:00:27.685Z,95.21
2023-05-14T03:01:27.712Z,95.21
2023-05-14T03:02:27.742Z,95.31
2023-05-14T03:03:27.686Z,95.31
2023-05-14T03:04:27.637Z,95.21
2023-05-14T03:05:27.612Z,95.21
2023-05-14T03:06:27.639Z,95.15
2023-05-14T03:07:27.591Z,95.15
2023-05-14T03:08:27.805Z,95.15
2023-05-14T03:09:27.584Z,95.15
2023-05-14T03:10:27.598Z,95.15
2023-05-14T03:11:27.541Z,95.15
2023-05-14T03:12:27.560Z,95.15
2023-05-14T03:13:27.576Z,95.25
2023-05-14T03:14:27.543Z,95.25
2023-05-14T03:15:27.562Z,95.25
2023-05-14T03:16:27.581Z,95.25
2023-05-14T03:17:27.517Z,95.25
2023-05-14T03:18:27.569Z,95.29
2023-05-14T03:19:27.492Z,95.25
2023-05-14T03:20:27.463Z,95.29
2023-05-14T03:21:27.463Z,95.29
2023-05-14T03:22:27.449Z,95.29
2023-05-14T03:23:27.442Z,95.29
2023-05-14T03:24:27.525Z,95.19
2023-05-14T03:25:27.410Z,95.19
2023-05-14T03:26:27.828Z,95.19
2023-05-14T03:27:27.515Z,95.19
2023-05-14T03:28:27.390Z,95.19
2023-05-14T03:29:27.404Z,95.29
2023-05-14T03:30:27.443Z,95.29
2023-05-14T03:31:27.386Z,95.40
2023-05-14T03:32:27.392Z,95.50
2023-05-14T03:33:27.300Z,95.50
2023-05-14T03:34:27.312Z,95.61
2023-05-14T03:35:27.501Z,95.61
2023-05-14T03:36:27.316Z,95.71
2023-05-14T03:37:27.293Z,95.71
2023-05-14T03:38:27.286Z,95.81
2023-05-14T03:39:27.251Z,95.81
2023-05-14T03:40:27.252Z,95.92
2023-05-14T03:41:27.334Z,95.92
2023-05-14T03:42:27.274Z,95.92
2023-05-14T03:43:27.212Z,95.92
2023-05-14T03:44:27.212Z,96.02
2023-05-14T03:45:27.279Z,96.02
2023-05-14T03:46:27.551Z,95.92
2023-05-14T03:47:27.172Z,95.92
2023-05-14T03:48:27.383Z,95.92
2023-05-14T03:49:27.125Z,95.81
2023-05-14T03:50:27.139Z,95.81
2023-05-14T03:51:27.086Z,95.86
2023-05-14T03:52:27.114Z,95.75
2023-05-14T03:53:27.130Z,95.75
2023-05-14T03:54:27.098Z,95.75
2023-05-14T03:55:27.054Z,95.75
2023-05-14T03:56:27.076Z,95.86
2023-05-14T03:57:27.113Z,95.75
2023-05-14T03:58:27.049Z,95.65
2023-05-14T03:59:27.009Z,95.54
2023-05-14T04:00:27.561Z,95.54
2023-05-14T04:01:27.168Z,95.54
2023-05-14T04:02:27.070Z,95.65
2023-05-14T04:03:27.075Z,95.65
2023-05-14T04:04:27.249Z,95.75
2023-05-14T04:05:26.976Z,95.75
2023-05-14T04:06:27.103Z,95.86
2023-05-14T04:07:27.090Z,95.86
2023-05-14T04:08:27.025Z,95.86
2023-05-14T04:09:27.052Z,95.86
2023-05-14T04:10:26.943Z,95.96
2023-05-14T04:11:26.907Z,95.96
2023-05-14T04:12:27.051Z,95.96
2023-05-14T04:13:27.140Z,95.96
2023-05-14T04:14:27.045Z,95.86
2023-05-14T04:15:26.840Z,95.96
2023-05-14T04:16:26.926Z,95.96
2023-05-14T04:17:26.928Z,95.96
2023-05-14T04:18:26.837Z,95.96
2023-05-14T04:19:26.790Z,95.96
2023-05-14T04:20:26.841Z,95.96
2023-05-14T04:21:26.784Z,95.92
2023-05-14T04:22:26.789Z,95.92
2023-05-14T04:23:26.742Z,95.92
2023-05-14T04:24:26.780Z,95.92
2023-05-14T04:25:26.707Z,95.81
2023-05-14T04:26:26.734Z,95.81
2023-05-14T04:27:26.723Z,95.81
2023-05-14T04:28:26.732Z,95.81
2023-05-14T04:29:26.722Z,95.81
2023-05-14T04:30:26.710Z,95.71
2023-05-14T04:31:26.691Z,95.71
2023-05-14T04:32:26.714Z,95.71
2023-05-14T04:33:26.642Z,95.71
2023-05-14T04:34:26.689Z,95.71
2023-05-14T04:35:26.601Z,95.81
2023-05-14T04:36:26.642Z,95.81
2023-05-14T04:37:26.619Z,95.81
2023-05-14T04:38:26.607Z,95.77
2023-05-14T04:39:26.997Z,95.77
2023-05-14T04:40:26.869Z,95.77
2023-05-14T04:41:26.575Z,95.77
2023-05-14T04:42:26.563Z,95.77
2023-05-14T04:43:26.547Z,95.77
2023-05-14T04:44:26.514Z,95.77
2023-05-14T04:45:26.531Z,95.77
2023-05-14T04:46:26.709Z,95.77
2023-05-14T04:47:26.535Z,95.73
2023-05-14T04:48:26.820Z,95.73
2023-05-14T04:49:26.508Z,95.73
2023-05-14T04:50:26.512Z,95.73
2023-05-14T04:51:26.465Z,95.73
2023-05-14T04:52:26.412Z,95.73
2023-05-14T04:53:26.500Z,95.83
2023-05-14T04:54:26.578Z,95.83
2023-05-14T04:55:26.610Z,95.89
2023-05-14T04:56:26.598Z,95.99
2023-05-14T04:57:26.385Z,96.05
2023-05-14T04:58:26.778Z,96.05
2023-05-14T04:59:26.445Z,95.90
2023-05-14T05:00:26.954Z,95.70
2023-05-14T05:01:27.883Z,95.24
2023-05-14T05:02:26.343Z,94.57
2023-05-14T05:03:27.067Z,94.06
2023-05-14T05:04:26.356Z,93.19
2023-05-14T05:05:26.488Z,92.37
2023-05-14T05:06:26.482Z,91.40
2023-05-14T05:07:26.495Z,90.73
2023-05-14T05:08:26.487Z,90.33
2023-05-14T05:09:26.528Z,89.87
2023-05-14T05:10:26.591Z,89.31
2023-05-14T05:11:26.233Z,88.59
2023-05-14T05:12:26.221Z,87.73
2023-05-14T05:13:26.213Z,86.80
2023-05-14T05:14:26.183Z,86.15
2023-05-14T05:15:26.734Z,85.63
2023-05-14T05:16:26.294Z,85.18
2023-05-14T05:17:26.190Z,84.77
2023-05-14T05:18:26.213Z,84.53
2023-05-14T05:19:35.661Z,84.32
2023-05-14T05:20:27.149Z,83.87
2023-05-14T05:21:26.119Z,83.56
2023-05-14T05:22:26.103Z,83.42
2023-05-14T05:23:26.110Z,82.81
2023-05-14T05:24:26.047Z,82.15
2023-05-14T05:25:26.088Z,81.74
2023-05-14T05:26:26.140Z,81.34
2023-05-14T05:27:26.076Z,81.09
2023-05-14T05:28:26.012Z,80.78
2023-05-14T05:29:26.029Z,80.23
2023-05-14T05:30:26.212Z,79.93
2023-05-14T05:31:26.063Z,79.62
2023-05-14T05:32:26.008Z,79.21
2023-05-14T05:33:26.014Z,79.38
2023-05-14T05:34:25.957Z,79.27
2023-05-14T05:35:25.981Z,79.27
2023-05-14T05:36:25.997Z,79.34
2023-05-14T05:37:25.922Z,79.44
2023-05-14T05:38:25.891Z,78.63
2023-05-14T05:39:25.898Z,77.87
2023-05-14T05:40:26.003Z,77.87
2023-05-14T05:41:25.900Z,78.04
2023-05-14T05:42:25.840Z,77.83
2023-05-14T05:43:25.861Z,77.80
2023-05-14T05:44:25.820Z,77.49
2023-05-14T05:45:25.836Z,76.88
2023-05-14T05:46:25.879Z,77.04
2023-05-14T05:47:25.819Z,76.64
2023-05-14T05:48:25.789Z,76.43
2023-05-14T05:49:26.271Z,76.40
2023-05-14T05:50:26.256Z,75.89
2023-05-14T05:51:25.781Z,75.68
2023-05-14T05:52:25.814Z,75.48
2023-05-14T05:53:25.770Z,75.37
2023-05-14T05:54:25.718Z,74.73
2023-05-14T05:55:25.747Z,75.04
2023-05-14T05:56:25.672Z,74.73
2023-05-14T05:57:26.403Z,74.63
2023-05-14T05:58:25.652Z,74.42
2023-05-14T05:59:25.709Z,74.49
2023-05-14T06:00:26.045Z,73.77
2023-05-14T06:01:25.676Z,73.98
2023-05-14T06:02:25.655Z,74.38
2023-05-14T06:03:25.678Z,74.90
2023-05-14T06:04:25.584Z,74.90
2023-05-14T06:05:25.680Z,74.76
2023-05-14T06:06:25.579Z,74.76
2023-05-14T06:07:25.573Z,74.76
2023-05-14T06:08:25.567Z,74.76
2023-05-14T06:09:25.570Z,75.07
2023-05-14T06:10:26.103Z,75.03
2023-05-14T06:11:25.979Z,74.93
2023-05-14T06:12:25.548Z,74.83
2023-05-14T06:13:25.531Z,74.93
2023-05-14T06:14:25.485Z,75.23
2023-05-14T06:15:25.503Z,75.13
2023-05-14T06:16:25.546Z,75.23
2023-05-14T06:17:25.721Z,75.23
2023-05-14T06:18:25.509Z,75.92
2023-05-14T06:19:25.459Z,75.81
2023-05-14T06:20:25.681Z,75.71
2023-05-14T06:21:25.464Z,75.40
2023-05-14T06:22:25.456Z,75.40
2023-05-14T06:23:25.421Z,75.37
2023-05-14T06:24:25.379Z,74.76
2023-05-14T06:25:25.397Z,74.04
2023-05-14T06:26:25.976Z,74.76
2023-05-14T06:27:25.361Z,74.76
2023-05-14T06:28:25.340Z,74.41
2023-05-14T06:29:25.361Z,74.72
2023-05-14T06:30:25.599Z,73.40
2023-05-14T06:31:25.349Z,73.40
2023-05-14T06:32:25.387Z,73.97
2023-05-14T06:33:25.343Z,73.97
2023-05-14T06:34:25.267Z,72.65
2023-05-14T06:35:25.275Z,71.94
2023-05-14T06:36:25.251Z,72.86
2023-05-14T06:37:25.272Z,73.54
2023-05-14T06:38:25.227Z,72.82
2023-05-14T06:39:25.265Z,72.01
2023-05-14T06:40:25.405Z,71.16
2023-05-14T06:41:25.233Z,71.97
2023-05-14T06:42:25.181Z,72.08
2023-05-14T06:43:25.192Z,71.23
2023-05-14T06:44:25.175Z,70.62
2023-05-14T06:45:25.156Z,70.99
2023-05-14T06:46:25.117Z,70.28
2023-05-14T06:47:25.229Z,70.04
2023-05-14T06:48:25.190Z,68.01
2023-05-14T06:49:25.178Z,68.62
2023-05-14T06:50:25.265Z,68.93
2023-05-14T06:51:25.264Z,69.10
2023-05-14T06:52:25.262Z,68.29
2023-05-14T06:53:25.146Z,68.39
2023-05-14T06:54:25.047Z,69.00
2023-05-14T06:55:25.049Z,68.56
2023-05-14T06:56:24.999Z,67.75
2023-05-14T06:57:25.015Z,67.14
2023-05-14T06:58:25.018Z,66.53
2023-05-14T06:59:24.983Z,67.24
2023-05-14T07:00:25.226Z,66.80
2023-05-14T07:01:25.036Z,66.60
2023-05-14T07:02:24.965Z,66.80
2023-05-14T07:03:25.706Z,67.51
2023-05-14T07:04:24.928Z,67.08
2023-05-14T07:05:25.356Z,66.97
2023-05-14T07:06:24.941Z,66.16
2023-05-14T07:07:24.901Z,66.37
2023-05-14T07:08:24.952Z,65.83
2023-05-14T07:09:24.895Z,64.11
2023-05-14T07:10:26.569Z,64.51
2023-05-14T07:11:26.094Z,64.72
2023-05-14T07:12:25.088Z,65.12
2023-05-14T07:13:27.590Z,65.50
2023-05-14T07:14:24.823Z,63.09
2023-05-14T07:15:24.813Z,62.79
2023-05-14T07:16:25.043Z,64.01
2023-05-14T07:17:24.956Z,63.60
2023-05-14T07:18:24.866Z,64.72
2023-05-14T07:19:24.769Z,64.99
2023-05-14T07:20:25.011Z,64.28
2023-05-14T07:21:24.750Z,64.25
2023-05-14T07:22:24.710Z,64.45
2023-05-14T07:23:24.730Z,64.73
2023-05-14T07:24:24.724Z,62.40
2023-05-14T07:25:24.738Z,61.90
2023-05-14T07:26:24.704Z,61.99
2023-05-14T07:27:24.665Z,62.10
2023-05-14T07:28:24.639Z,63.08
2023-05-14T07:29:24.656Z,63.08
2023-05-14T07:30:24.997Z,63.68
2023-05-14T07:31:24.669Z,63.15
2023-05-14T07:32:24.654Z,62.85
2023-05-14T07:33:24.625Z,61.80
2023-05-14T07:34:24.552Z,59.99
2023-05-14T07:35:31.650Z,60.60
2023-05-14T07:36:25.288Z,60.36
2023-05-14T07:37:24.536Z,60.36
2023-05-14T07:38:25.247Z,61.57
2023-05-14T07:39:25.401Z,61.44
2023-05-14T07:40:24.668Z,61.24
2023-05-14T07:41:24.538Z,60.41
2023-05-14T07:42:35.394Z,59.30
2023-05-14T07:43:25.509Z,58.89
2023-05-14T07:44:24.472Z,59.60
2023-05-14T07:45:24.653Z,60.10
2023-05-14T07:46:24.790Z,60.08
2023-05-14T07:47:24.526Z,60.17
2023-05-14T07:48:24.564Z,58.97
2023-05-14T07:49:24.444Z,58.26
2023-05-14T07:50:24.714Z,58.09
2023-05-14T07:51:24.455Z,60.74
2023-05-14T07:52:24.384Z,59.53
2023-05-14T07:53:24.955Z,59.93
2023-05-14T07:54:24.375Z,59.42
2023-05-14T07:55:24.390Z,59.73
2023-05-14T07:56:24.333Z,59.22
2023-05-14T07:57:24.622Z,59.12
2023-05-14T07:58:24.287Z,58.62
2023-05-14T07:59:24.325Z,59.22
2023-05-14T08:00:24.555Z,58.72
2023-05-14T08:01:24.371Z,59.25
2023-05-14T08:02:24.359Z,59.15
2023-05-14T08:03:24.304Z,59.73
2023-05-14T08:04:24.272Z,59.22
2023-05-14T08:05:24.245Z,58.32
2023-05-14T08:06:24.270Z,59.35
2023-05-14T08:07:24.238Z,59.53
2023-05-14T08:08:24.343Z,59.33
2023-05-14T08:09:24.245Z,59.35
2023-05-14T08:10:24.244Z,59.96
2023-05-14T08:11:24.172Z,59.83
2023-05-14T08:12:24.267Z,59.73
2023-05-14T08:13:24.245Z,59.15
2023-05-14T08:14:24.174Z,59.76
2023-05-14T08:15:27.084Z,60.06
2023-05-14T08:16:24.954Z,58.54
2023-05-14T08:17:24.145Z,59.76
2023-05-14T08:18:24.063Z,58.62
2023-05-14T08:19:24.076Z,58.62
2023-05-14T08:20:24.252Z,57.21
2023-05-14T08:21:24.157Z,57.41
2023-05-14T08:22:24.019Z,57.41
2023-05-14T08:23:24.038Z,58.32
2023-05-14T08:24:24.000Z,58.80
2023-05-14T08:25:24.028Z,58.19
2023-05-14T08:26:23.961Z,58.67
2023-05-14T08:27:24.003Z,58.76
2023-05-14T08:28:24.030Z,58.84
2023-05-14T08:29:23.989Z,57.23
2023-05-14T08:30:24.180Z,57.81
2023-05-14T08:31:24.027Z,56.20
2023-05-14T08:32:24.371Z,56.22
2023-05-14T08:33:24.015Z,56.02
2023-05-14T08:34:23.943Z,55.74
2023-05-14T08:35:23.895Z,57.03
2023-05-14T08:36:23.866Z,58.44
2023-05-14T08:37:24.067Z,57.23
2023-05-14T08:38:24.205Z,56.72
2023-05-14T08:39:23.903Z,55.91
2023-05-14T08:40:24.180Z,57.20
2023-05-14T08:41:23.828Z,56.90
2023-05-14T08:42:23.825Z,56.67
2023-05-14T08:43:23.832Z,55.96
2023-05-14T08:44:23.762Z,55.13
2023-05-14T08:45:23.845Z,55.13
2023-05-14T08:46:23.755Z,54.93
2023-05-14T08:47:23.958Z,55.13
2023-05-14T08:48:23.798Z,55.21
2023-05-14T08:49:23.738Z,54.03
2023-05-14T08:50:23.905Z,53.63
2023-05-14T08:51:23.709Z,54.73
2023-05-14T08:52:23.693Z,53.92
2023-05-14T08:53:23.874Z,54.83
2023-05-14T08:54:23.855Z,54.13
2023-05-14T08:55:23.810Z,53.92
2023-05-14T08:56:23.998Z,53.72
2023-05-14T08:57:24.006Z,54.43
2023-05-14T08:58:24.002Z,54.83
2023-05-14T08:59:24.099Z,54.23
2023-05-14T09:00:24.021Z,54.43
2023-05-14T09:01:24.172Z,54.03
2023-05-14T09:02:23.673Z,54.10
2023-05-14T09:03:24.002Z,54.60
2023-05-14T09:04:23.560Z,54.40
2023-05-14T09:05:23.546Z,54.68
2023-05-14T09:06:23.546Z,54.88
2023-05-14T09:07:23.701Z,53.30
2023-05-14T09:08:23.719Z,52.80
2023-05-14T09:09:23.481Z,54.00
2023-05-14T09:10:23.756Z,54.40
2023-05-14T09:11:23.574Z,51.99
2023-05-14T09:12:23.477Z,52.29
2023-05-14T09:13:23.435Z,53.17
2023-05-14T09:14:23.520Z,53.65
2023-05-14T09:15:23.510Z,52.24
2023-05-14T09:16:23.488Z,52.84
2023-05-14T09:17:23.478Z,51.42
2023-05-14T09:18:23.426Z,50.79
2023-05-14T09:19:23.400Z,50.99
2023-05-14T09:20:23.802Z,51.37
2023-05-14T09:21:23.392Z,49.96
2023-05-14T09:22:23.405Z,48.86
2023-05-14T09:23:23.397Z,49.96
2023-05-14T09:24:23.351Z,48.46
2023-05-14T09:25:23.294Z,49.16
2023-05-14T09:26:23.329Z,48.86
2023-05-14T09:27:23.280Z,47.96
2023-05-14T09:28:23.293Z,48.43
2023-05-14T09:29:23.348Z,48.13
2023-05-14T09:30:23.778Z,49.21
2023-05-14T09:31:23.338Z,47.50
2023-05-14T09:32:23.277Z,47.49
2023-05-14T09:33:23.423Z,47.58
2023-05-14T09:34:23.646Z,47.16
2023-05-14T09:35:23.256Z,47.04
2023-05-14T09:36:23.197Z,46.14
2023-05-14T09:37:23.170Z,45.04
2023-05-14T09:38:23.273Z,45.14
2023-05-14T09:39:23.355Z,46.04
2023-05-14T09:40:24.089Z,44.93
2023-05-14T09:41:23.202Z,44.54
2023-05-14T09:42:23.177Z,45.24
2023-05-14T09:43:23.095Z,43.96
2023-05-14T09:44:23.123Z,45.16
2023-05-14T09:45:23.084Z,45.86
2023-05-14T09:46:23.088Z,46.04
2023-05-14T09:47:23.135Z,46.14
2023-05-14T09:48:23.182Z,45.72
2023-05-14T09:49:23.346Z,44.92
2023-05-14T09:50:23.373Z,45.51
2023-05-14T09:51:23.022Z,44.92
2023-05-14T09:52:23.033Z,45.62
2023-05-14T09:53:23.488Z,44.62
2023-05-14T09:54:22.989Z,44.51
2023-05-14T09:55:23.425Z,45.51
2023-05-14T09:56:23.386Z,46.22
2023-05-14T09:57:22.947Z,45.72
2023-05-14T09:58:22.987Z,45.24
2023-05-14T09:59:22.973Z,45.72
2023-05-14T10:00:23.848Z,46.12
2023-05-14T10:01:22.993Z,45.51
2023-05-14T10:02:22.975Z,45.62
2023-05-14T10:03:22.906Z,45.42
2023-05-14T10:04:22.943Z,44.82
2023-05-14T10:05:22.839Z,44.21
2023-05-14T10:06:22.899Z,44.12
2023-05-14T10:07:22.832Z,44.51
2023-05-14T10:08:23.192Z,45.29
2023-05-14T10:09:22.791Z,46.19
2023-05-14T10:10:23.606Z,45.57
2023-05-14T10:11:22.877Z,43.77
2023-05-14T10:12:23.082Z,44.09
2023-05-14T10:13:22.795Z,44.09
2023-05-14T10:14:22.846Z,43.70
2023-05-14T10:15:23.530Z,43.59
2023-05-14T10:16:23.032Z,44.39
2023-05-14T10:17:23.080Z,44.87
2023-05-14T10:18:22.874Z,44.85
2023-05-14T10:19:23.021Z,43.35
2023-05-14T10:20:23.189Z,42.76
2023-05-14T10:21:22.758Z,43.13
2023-05-14T10:22:22.832Z,41.03
2023-05-14T10:23:22.688Z,42.15
2023-05-14T10:24:22.764Z,42.95
2023-05-14T10:25:22.761Z,41.85
2023-05-14T10:26:23.968Z,43.45
2023-05-14T10:27:22.593Z,42.46
2023-05-14T10:28:22.651Z,42.97
2023-05-14T10:29:22.584Z,42.79
2023-05-14T10:30:22.907Z,42.68
2023-05-14T10:31:22.612Z,43.95
2023-05-14T10:32:22.649Z,42.95
2023-05-14T10:33:22.850Z,41.66
2023-05-14T10:34:22.525Z,43.05
2023-05-14T10:35:22.744Z,42.35
2023-05-14T10:36:23.169Z,43.07
2023-05-14T10:37:23.158Z,43.57
2023-05-14T10:38:22.485Z,43.67
2023-05-14T10:39:22.569Z,43.18
2023-05-14T10:40:22.721Z,42.05
2023-05-14T10:41:22.559Z,43.65
2023-05-14T10:42:22.481Z,43.83
2023-05-14T10:43:22.563Z,42.43
2023-05-14T10:44:22.463Z,42.02
2023-05-14T10:45:22.381Z,42.19
2023-05-14T10:46:22.450Z,41.80
2023-05-14T10:47:22.375Z,40.50
2023-05-14T10:48:22.445Z,39.08
2023-05-14T10:49:36.094Z,39.08
2023-05-14T10:50:23.775Z,39.20
2023-05-14T10:51:26.473Z,39.52
2023-05-14T10:52:22.366Z,39.42
2023-05-14T10:53:22.332Z,40.52
2023-05-14T10:54:22.759Z,41.41
2023-05-14T10:55:22.294Z,41.44
2023-05-14T10:56:22.425Z,41.24
2023-05-14T10:57:22.553Z,42.63
2023-05-14T10:58:22.641Z,42.33
2023-05-14T10:59:22.238Z,42.35
2023-05-14T11:00:22.571Z,43.05
2023-05-14T11:01:22.382Z,43.35
2023-05-14T11:02:22.268Z,43.85
2023-05-14T11:03:22.302Z,43.65
2023-05-14T11:04:22.220Z,43.57
2023-05-14T11:05:22.192Z,43.09
2023-05-14T11:06:22.284Z,43.90
2023-05-14T11:07:22.139Z,44.20
2023-05-14T11:08:24.820Z,44.21
2023-05-14T11:09:22.162Z,44.12
2023-05-14T11:10:22.508Z,44.92
2023-05-14T11:11:22.182Z,43.62
2023-05-14T11:12:22.131Z,43.71
2023-05-14T11:13:22.100Z,44.20
2023-05-14T11:14:22.183Z,44.47
2023-05-14T11:15:22.208Z,44.85
2023-05-14T11:16:23.685Z,44.95
2023-05-14T11:17:22.233Z,43.43
2023-05-14T11:18:22.233Z,40.23
2023-05-14T11:19:22.026Z,41.03
2023-05-14T11:20:22.353Z,39.24
2023-05-14T11:21:22.026Z,39.04
2023-05-14T11:22:22.254Z,40.64
2023-05-14T11:23:21.983Z,40.42
2023-05-14T11:24:21.995Z,40.44
2023-05-14T11:25:21.991Z,40.44
2023-05-14T11:26:21.993Z,40.44
2023-05-14T11:27:21.904Z,41.61
2023-05-14T11:28:21.948Z,41.19
2023-05-14T11:29:22.002Z,40.70
2023-05-14T11:30:22.100Z,40.50
2023-05-14T11:31:21.927Z,40.00
2023-05-14T11:32:21.974Z,40.08
2023-05-14T11:33:21.862Z,40.26
2023-05-14T11:34:21.878Z,40.46
2023-05-14T11:35:21.852Z,39.84
2023-05-14T11:36:21.840Z,40.16
2023-05-14T11:37:22.136Z,39.56
2023-05-14T11:38:21.908Z,40.46
2023-05-14T11:39:22.253Z,38.86
2023-05-14T11:40:22.483Z,39.16
2023-05-14T11:41:21.981Z,38.86
2023-05-14T11:42:21.810Z,38.37
2023-05-14T11:43:21.741Z,38.45
2023-05-14T11:44:21.751Z,37.55
2023-05-14T11:45:21.752Z,38.03
2023-05-14T11:46:21.858Z,37.51
2023-05-14T11:47:21.694Z,37.62
2023-05-14T11:48:21.714Z,37.00
2023-05-14T11:49:21.668Z,38.47
2023-05-14T11:50:21.836Z,36.36
2023-05-14T11:51:21.647Z,36.66
2023-05-14T11:52:21.694Z,37.24
2023-05-14T11:53:21.648Z,34.94
2023-05-14T11:54:21.636Z,34.34
2023-05-14T11:55:21.640Z,34.74
2023-05-14T11:56:21.604Z,36.11
2023-05-14T11:57:21.614Z,33.94
2023-05-14T11:58:21.795Z,33.45
2023-05-14T11:59:21.563Z,34.96
2023-05-14T12:00:22.047Z,35.87
2023-05-14T12:01:21.694Z,35.79
2023-05-14T12:02:22.275Z,35.80
2023-05-14T12:03:22.426Z,36.40
2023-05-14T12:04:21.571Z,36.32
2023-05-14T12:05:22.022Z,36.83
2023-05-14T12:06:21.516Z,37.73
2023-05-14T12:07:21.623Z,37.93
2023-05-14T12:08:21.565Z,37.73
2023-05-14T12:09:21.601Z,37.85
2023-05-14T12:10:21.768Z,36.07
2023-05-14T12:11:21.432Z,36.99
2023-05-14T12:12:21.452Z,38.80
2023-05-14T12:13:21.452Z,38.10
2023-05-14T12:14:21.620Z,38.40
2023-05-14T12:15:21.410Z,38.20
2023-05-14T12:16:21.463Z,39.12
2023-05-14T12:17:21.442Z,39.32
2023-05-14T12:18:25.024Z,39.80
2023-05-14T12:19:21.572Z,39.70
2023-05-14T12:20:21.455Z,40.10
2023-05-14T12:21:21.339Z,39.80
2023-05-14T12:22:21.350Z,41.02
2023-05-14T12:23:21.304Z,40.40
2023-05-14T12:24:21.324Z,40.20
2023-05-14T12:25:21.399Z,39.10
2023-05-14T12:26:21.299Z,40.00
2023-05-14T12:27:21.248Z,40.48
2023-05-14T12:28:21.241Z,40.08
2023-05-14T12:29:21.300Z,40.08
2023-05-14T12:30:22.199Z,39.78
2023-05-14T12:31:21.213Z,39.68
2023-05-14T12:32:21.626Z,40.08
2023-05-14T12:33:21.328Z,39.78
2023-05-14T12:34:21.195Z,40.28
2023-05-14T12:35:21.208Z,40.48
2023-05-14T12:36:22.405Z,41.08
2023-05-14T12:37:21.890Z,40.78
2023-05-14T12:38:21.216Z,41.67
2023-05-14T12:39:21.628Z,40.98
2023-05-14T12:40:21.212Z,40.88
2023-05-14T12:41:21.172Z,40.78
2023-05-14T12:42:21.159Z,40.08
2023-05-14T12:43:21.064Z,41.08
2023-05-14T12:44:21.060Z,40.38
2023-05-14T12:45:21.847Z,39.88
2023-05-14T12:46:21.121Z,39.76
2023-05-14T12:47:21.176Z,40.16
2023-05-14T12:48:21.200Z,40.46
2023-05-14T12:49:21.011Z,38.67
2023-05-14T12:50:21.006Z,38.95
2023-05-14T12:51:21.094Z,38.95
2023-05-14T12:52:36.195Z,38.63